KLBB

Lubbock Preston Smith International Airport

Lubbock, Texas, USA
METAR KLBB 140453Z 26004KT 10SM CLR M03/M07 A3046 RMK AO2 SLP328 T10331067
Observed Flight Rules
Nov-14 @ 04:53 UTC (22 minutes ago) Visual Flight Rules
Wind Visibility Clouds
260° at 4 knots 10 miles
  • Clear skies
Temperatures Readings
Current -3°C / 27°F
Dewpoint -7°C / 19°F
Humidity 74%
Altimeter 30.46" Hg
Pressure 1032.8 hPa
Elevation 993
METAR KLBB 140453Z 26004KT 10SM CLR M03/M07 A3046 RMK AO2 SLP328 T10331067
Observed Flight Rules
Nov-14 @ 04:53 UTC
(22 minutes ago)
VFR
Wind Visibility
260° at 4 knots 10 miles
Clouds
  • Clear skies
Temperature Dewpoint
-3°C / 27°F -7°C / 19°F
Humidity Altimeter Pressure
74% 30.46" Hg 1032.8 hPa